createdAt,value
2022-08-31T00:01:50.474Z,8.80
2022-08-31T00:06:54.223Z,8.83
2022-08-31T00:11:59.593Z,8.13
2022-08-31T00:17:04.359Z,8.80
2022-08-31T00:22:08.009Z,8.02
2022-08-31T00:27:13.256Z,8.93
2022-08-31T00:32:16.882Z,8.77
2022-08-31T00:37:25.075Z,9.27
2022-08-31T00:42:30.381Z,8.53
2022-08-31T00:47:33.954Z,8.50
2022-08-31T00:52:40.007Z,10.05
2022-08-31T00:57:48.653Z,8.65
2022-08-31T01:02:52.667Z,8.95
2022-08-31T01:07:57.039Z,8.43
2022-08-31T01:13:03.387Z,9.15
2022-08-31T01:18:08.003Z,8.63
2022-08-31T01:28:20.729Z,9.23
2022-08-31T01:33:24.379Z,9.30
2022-08-31T01:38:30.242Z,9.02
2022-08-31T01:43:35.310Z,8.38
2022-08-31T01:48:41.495Z,8.75
2022-08-31T01:53:50.082Z,9.07
2022-08-31T01:58:53.761Z,8.77
2022-08-31T02:03:57.374Z,9.13
2022-08-31T02:09:04.728Z,8.80
2022-08-31T02:14:09.273Z,9.35
2022-08-31T02:19:13.385Z,8.95
2022-08-31T02:24:18.663Z,8.50
2022-08-31T02:29:22.327Z,8.45
2022-08-31T02:34:26.169Z,8.35
2022-08-31T02:39:32.518Z,8.50
2022-08-31T02:44:36.174Z,8.48
2022-08-31T02:49:39.739Z,8.90
2022-08-31T02:54:45.950Z,7.68
2022-08-31T02:59:49.794Z,8.02
2022-08-31T03:04:53.439Z,8.02
2022-08-31T03:09:58.677Z,8.13
2022-08-31T03:15:02.629Z,8.55
2022-08-31T03:20:07.656Z,8.60
2022-08-31T03:25:13.047Z,8.52
2022-08-31T03:30:19.691Z,8.52
2022-08-31T03:35:23.483Z,7.70
2022-08-31T03:40:28.950Z,8.30
2022-08-31T03:45:32.575Z,8.50
2022-08-31T03:50:36.925Z,8.35
2022-08-31T03:55:43.936Z,7.87
2022-08-31T04:00:47.486Z,8.43
2022-08-31T04:05:51.389Z,8.55
2022-08-31T04:10:56.596Z,8.15
2022-08-31T04:16:01.032Z,8.68
2022-08-31T04:21:04.956Z,8.33
2022-08-31T04:26:16.816Z,8.50
2022-08-31T04:31:22.277Z,8.40
2022-08-31T04:36:27.765Z,8.73
2022-08-31T04:46:38.914Z,8.73
2022-08-31T04:51:42.486Z,8.38
2022-08-31T04:56:47.727Z,8.93
2022-08-31T05:01:51.375Z,8.40
2022-08-31T05:06:55.045Z,8.52
2022-08-31T05:12:00.470Z,8.20
2022-08-31T05:17:04.057Z,8.13
2022-08-31T05:22:11.796Z,8.68
2022-08-31T05:27:17.075Z,8.63
2022-08-31T05:32:20.639Z,8.90
2022-08-31T05:37:24.340Z,8.70
2022-08-31T05:42:29.781Z,8.95
2022-08-31T05:47:33.351Z,8.13
2022-08-31T05:52:37.656Z,8.18
2022-08-31T05:57:42.859Z,8.10
2022-08-31T06:02:46.435Z,8.35
2022-08-31T06:07:49.988Z,8.88
2022-08-31T06:12:55.230Z,8.15
2022-08-31T06:17:58.806Z,7.95
2022-08-31T06:23:02.381Z,8.80
2022-08-31T06:28:07.907Z,8.45
2022-08-31T06:33:12.276Z,8.90
2022-08-31T06:38:15.897Z,8.98
2022-08-31T06:43:21.374Z,8.70
2022-08-31T06:48:25.358Z,8.88
2022-08-31T06:53:29.058Z,8.55
2022-08-31T06:58:34.771Z,8.73
2022-08-31T07:08:42.722Z,9.15
2022-08-31T07:13:48.997Z,9.25
2022-08-31T07:18:53.888Z,8.93
2022-08-31T07:23:59.848Z,8.90
2022-08-31T07:29:07.710Z,9.18
2022-08-31T07:34:12.351Z,8.70
2022-08-31T07:39:15.957Z,9.23
2022-08-31T07:44:22.182Z,9.23
2022-08-31T07:49:25.738Z,9.65
2022-08-31T07:54:29.361Z,9.10
2022-08-31T07:59:35.171Z,9.40
2022-08-31T08:09:41.599Z,9.23
2022-08-31T08:14:46.844Z,9.00
2022-08-31T08:19:50.435Z,9.70
2022-08-31T08:24:55.501Z,9.02
2022-08-31T08:30:01.007Z,9.23
2022-08-31T08:35:05.432Z,9.27
2022-08-31T08:40:14.186Z,9.45
2022-08-31T08:45:19.808Z,9.50
2022-08-31T08:50:25.774Z,9.63
2022-08-31T08:55:36.518Z,9.50
2022-08-31T09:00:41.910Z,9.98
2022-08-31T09:06:03.608Z,10.07
2022-08-31T09:11:14.020Z,9.75
2022-08-31T09:16:27.606Z,9.98
2022-08-31T09:21:35.282Z,10.90
2022-08-31T09:26:53.256Z,10.27
2022-08-31T09:32:07.683Z,9.80
2022-08-31T09:37:13.857Z,10.23
2022-08-31T09:42:33.787Z,10.25
2022-08-31T09:47:46.637Z,10.35
2022-08-31T09:52:50.225Z,9.85
2022-08-31T09:57:56.437Z,9.80
2022-08-31T10:03:10.414Z,10.18
2022-08-31T10:08:34.574Z,9.90
2022-08-31T10:13:41.013Z,9.60
2022-08-31T10:18:55.359Z,10.13
2022-08-31T10:24:13.833Z,9.88
2022-08-31T10:29:27.277Z,10.05
2022-08-31T10:34:36.555Z,10.02
2022-08-31T10:39:44.500Z,10.23
2022-08-31T10:44:53.014Z,9.35
2022-08-31T10:50:00.651Z,9.02
2022-08-31T10:55:15.015Z,9.50
2022-08-31T11:00:21.897Z,9.23
2022-08-31T11:05:34.785Z,8.68
2022-08-31T11:10:47.653Z,9.60
2022-08-31T11:16:15.187Z,8.75
2022-08-31T11:21:51.642Z,10.57
2022-08-31T11:27:05.457Z,8.65
2022-08-31T11:32:18.707Z,9.23
2022-08-31T11:37:57.558Z,8.70
2022-08-31T11:43:01.175Z,9.95
2022-08-31T11:48:06.939Z,9.77
2022-08-31T11:58:30.462Z,9.00
2022-08-31T12:03:52.337Z,10.15
2022-08-31T12:09:18.583Z,9.52
2022-08-31T12:14:32.528Z,9.90
2022-08-31T12:19:46.049Z,8.82
2022-08-31T12:25:09.720Z,9.48
2022-08-31T12:30:22.523Z,10.38
2022-08-31T12:35:27.625Z,9.27
2022-08-31T12:40:33.947Z,9.37
2022-08-31T12:46:01.344Z,9.77
2022-08-31T12:51:15.605Z,9.48
2022-08-31T12:56:30.062Z,9.13
2022-08-31T13:01:40.377Z,9.70
2022-08-31T13:06:44.161Z,9.95
2022-08-31T13:11:54.333Z,9.70
2022-08-31T13:17:05.475Z,9.32
2022-08-31T13:22:12.101Z,9.23
2022-08-31T13:27:21.734Z,10.20
2022-08-31T13:32:34.414Z,9.18
2022-08-31T13:37:41.543Z,8.90
2022-08-31T13:42:56.878Z,9.57
2022-08-31T13:48:02.330Z,9.63
2022-08-31T13:53:26.344Z,8.97
2022-08-31T13:58:33.172Z,8.93
2022-08-31T14:03:39.673Z,9.05
2022-08-31T14:08:48.510Z,9.75
2022-08-31T14:13:53.786Z,8.85
2022-08-31T14:18:57.381Z,9.40
2022-08-31T14:24:02.250Z,9.23
2022-08-31T14:29:10.000Z,9.20
2022-08-31T14:34:20.449Z,9.55
2022-08-31T14:39:26.484Z,10.52
2022-08-31T14:49:36.757Z,9.57
2022-08-31T14:54:41.230Z,9.40
2022-08-31T14:59:46.896Z,9.40
2022-08-31T15:09:53.922Z,8.82
2022-08-31T15:14:59.283Z,8.30
2022-08-31T15:20:04.445Z,8.75
2022-08-31T15:25:09.046Z,8.47
2022-08-31T15:30:16.560Z,9.15
2022-08-31T15:35:22.529Z,8.45
2022-08-31T15:40:29.363Z,9.02
2022-08-31T15:45:34.836Z,8.48
2022-08-31T15:50:38.448Z,8.80
2022-08-31T15:55:42.064Z,9.07
2022-08-31T16:00:47.443Z,8.63
2022-08-31T16:05:51.075Z,8.57
2022-08-31T16:10:55.090Z,8.18
2022-08-31T16:16:00.324Z,8.15
2022-08-31T16:21:06.539Z,8.50
2022-08-31T16:26:10.130Z,8.50
2022-08-31T16:31:15.446Z,8.40
2022-08-31T16:41:24.332Z,7.45
2022-08-31T16:46:40.693Z,8.57
2022-08-31T16:51:48.526Z,7.65
2022-08-31T16:56:52.418Z,7.53
2022-08-31T17:01:57.789Z,8.02
2022-08-31T17:07:01.359Z,7.32
2022-08-31T17:12:06.900Z,7.35
2022-08-31T17:17:14.321Z,7.95
2022-08-31T17:22:24.490Z,7.57
2022-08-31T17:27:31.185Z,7.50
2022-08-31T17:32:39.385Z,7.38
2022-08-31T17:37:48.940Z,8.90
2022-08-31T17:42:55.024Z,8.57
2022-08-31T17:48:03.489Z,8.63
2022-08-31T17:53:07.094Z,8.57
2022-08-31T17:58:10.741Z,8.90
2022-08-31T18:03:16.004Z,8.90
2022-08-31T18:08:19.915Z,8.77
2022-08-31T18:13:24.510Z,8.80
2022-08-31T18:18:30.077Z,9.38
2022-08-31T18:23:33.890Z,10.10
2022-08-31T18:28:37.535Z,9.40
2022-08-31T18:33:42.838Z,9.68
2022-08-31T18:38:47.310Z,9.23
2022-08-31T18:43:51.025Z,9.13
2022-08-31T18:48:58.857Z,9.80
2022-08-31T18:54:11.179Z,9.38
2022-08-31T18:59:15.741Z,9.70
2022-08-31T19:04:22.023Z,9.15
2022-08-31T19:09:26.352Z,9.05
2022-08-31T19:14:32.536Z,9.30
2022-08-31T19:19:38.485Z,9.27
2022-08-31T19:24:42.622Z,8.93
2022-08-31T19:29:46.244Z,9.10
2022-08-31T19:34:51.447Z,8.88
2022-08-31T19:40:00.209Z,9.13
2022-08-31T19:50:29.743Z,8.77
2022-08-31T19:55:36.851Z,8.45
2022-08-31T20:00:40.435Z,8.77
2022-08-31T20:05:45.639Z,9.30
2022-08-31T20:10:49.237Z,9.23
2022-08-31T20:15:53.026Z,8.75
2022-08-31T20:20:59.050Z,8.60
2022-08-31T20:26:04.153Z,8.82
2022-08-31T20:31:11.069Z,8.55
2022-08-31T20:36:17.844Z,8.80
2022-08-31T20:41:21.544Z,8.60
2022-08-31T20:46:25.135Z,8.73
2022-08-31T20:51:30.385Z,9.05
2022-08-31T20:56:36.211Z,8.50
2022-08-31T21:01:40.539Z,8.70
2022-08-31T21:06:46.549Z,8.93
2022-08-31T21:11:50.308Z,9.35
2022-08-31T21:16:54.948Z,8.57
2022-08-31T21:27:03.571Z,9.00
2022-08-31T21:32:08.891Z,8.57
2022-08-31T21:37:14.170Z,8.80
2022-08-31T21:42:17.889Z,8.75
2022-08-31T21:47:21.447Z,8.93
2022-08-31T21:52:26.672Z,8.60
2022-08-31T21:57:30.254Z,8.50
2022-08-31T22:02:33.882Z,9.05
2022-08-31T22:07:39.167Z,8.83
2022-08-31T22:12:42.745Z,8.25
2022-08-31T22:18:09.563Z,8.37
2022-08-31T22:23:11.875Z,8.48
2022-08-31T22:28:15.823Z,7.88
2022-08-31T22:33:19.742Z,8.32
2022-08-31T22:38:25.035Z,8.40
2022-08-31T22:43:28.615Z,8.52
2022-08-31T22:48:32.186Z,8.00
2022-08-31T22:53:37.528Z,8.07
2022-08-31T22:58:41.364Z,8.60
2022-08-31T23:03:45.132Z,7.97
2022-08-31T23:08:51.444Z,7.80
2022-08-31T23:13:57.270Z,7.80
2022-08-31T23:19:03.081Z,8.07
2022-08-31T23:24:08.707Z,8.70
2022-08-31T23:29:13.194Z,8.57
2022-08-31T23:39:24.862Z,7.50
2022-08-31T23:44:28.449Z,7.88
2022-08-31T23:49:32.752Z,7.97
2022-08-31T23:54:37.999Z,8.13
2022-08-31T23:59:41.703Z,8.00
